sensor_id;sensor_type;location;lat;lon;timestamp;P1;durP1;ratioP1;P2;durP2;ratioP2
60964;SDS011;46834;51.100;6.886;2022-12-18T00:00:04;10.93;;;6.30;;
60964;SDS011;46834;51.100;6.886;2022-12-18T00:02:31;12.03;;;6.53;;
60964;SDS011;46834;51.100;6.886;2022-12-18T00:05:00;12.27;;;6.47;;
60964;SDS011;46834;51.100;6.886;2022-12-18T00:07:25;11.10;;;6.53;;
60964;SDS011;46834;51.100;6.886;2022-12-18T00:09:51;11.93;;;6.13;;
60964;SDS011;46834;51.100;6.886;2022-12-18T00:12:17;11.50;;;6.63;;
60964;SDS011;46834;51.100;6.886;2022-12-18T00:14:42;10.33;;;5.80;;
60964;SDS011;46834;51.100;6.886;2022-12-18T00:17:08;11.57;;;6.00;;
60964;SDS011;46834;51.100;6.886;2022-12-18T00:19:33;13.63;;;6.43;;
60964;SDS011;46834;51.100;6.886;2022-12-18T00:21:59;10.70;;;6.00;;
60964;SDS011;46834;51.100;6.886;2022-12-18T00:24:25;12.37;;;5.90;;
60964;SDS011;46834;51.100;6.886;2022-12-18T00:26:50;9.77;;;5.70;;
60964;SDS011;46834;51.100;6.886;2022-12-18T00:29:16;9.57;;;5.90;;
60964;SDS011;46834;51.100;6.886;2022-12-18T00:31:42;11.40;;;6.30;;
60964;SDS011;46834;51.100;6.886;2022-12-18T00:34:10;10.10;;;5.70;;
60964;SDS011;46834;51.100;6.886;2022-12-18T00:36:39;11.67;;;6.10;;
60964;SDS011;46834;51.100;6.886;2022-12-18T00:39:05;10.27;;;5.83;;
60964;SDS011;46834;51.100;6.886;2022-12-18T00:41:31;10.63;;;5.77;;
60964;SDS011;46834;51.100;6.886;2022-12-18T00:44:16;11.03;;;6.30;;
60964;SDS011;46834;51.100;6.886;2022-12-18T00:46:44;10.17;;;5.37;;
60964;SDS011;46834;51.100;6.886;2022-12-18T00:49:12;10.87;;;5.67;;
60964;SDS011;46834;51.100;6.886;2022-12-18T00:51:40;10.67;;;5.47;;
60964;SDS011;46834;51.100;6.886;2022-12-18T00:54:06;9.73;;;5.73;;
60964;SDS011;46834;51.100;6.886;2022-12-18T00:56:32;10.00;;;5.60;;
60964;SDS011;46834;51.100;6.886;2022-12-18T00:58:59;10.20;;;6.10;;
60964;SDS011;46834;51.100;6.886;2022-12-18T01:01:25;11.10;;;5.50;;
60964;SDS011;46834;51.100;6.886;2022-12-18T01:03:50;10.23;;;5.80;;
60964;SDS011;46834;51.100;6.886;2022-12-18T01:06:16;11.83;;;6.37;;
60964;SDS011;46834;51.100;6.886;2022-12-18T01:08:42;10.33;;;5.63;;
60964;SDS011;46834;51.100;6.886;2022-12-18T01:11:10;11.33;;;5.97;;
60964;SDS011;46834;51.100;6.886;2022-12-18T01:13:39;9.77;;;5.07;;
60964;SDS011;46834;51.100;6.886;2022-12-18T01:16:05;9.30;;;6.00;;
60964;SDS011;46834;51.100;6.886;2022-12-18T01:18:31;8.67;;;5.57;;
60964;SDS011;46834;51.100;6.886;2022-12-18T01:20:57;10.70;;;5.97;;
60964;SDS011;46834;51.100;6.886;2022-12-18T01:23:23;12.07;;;6.17;;
60964;SDS011;46834;51.100;6.886;2022-12-18T01:25:49;12.00;;;5.83;;
60964;SDS011;46834;51.100;6.886;2022-12-18T01:28:14;11.47;;;6.30;;
60964;SDS011;46834;51.100;6.886;2022-12-18T01:30:40;8.93;;;5.67;;
60964;SDS011;46834;51.100;6.886;2022-12-18T01:33:06;12.33;;;6.10;;
60964;SDS011;46834;51.100;6.886;2022-12-18T01:35:31;10.47;;;5.70;;
60964;SDS011;46834;51.100;6.886;2022-12-18T01:37:57;10.40;;;5.70;;
60964;SDS011;46834;51.100;6.886;2022-12-18T01:40:23;12.73;;;6.23;;
60964;SDS011;46834;51.100;6.886;2022-12-18T01:42:50;11.90;;;5.53;;
60964;SDS011;46834;51.100;6.886;2022-12-18T01:45:21;11.33;;;6.13;;
60964;SDS011;46834;51.100;6.886;2022-12-18T01:47:52;9.63;;;5.30;;
60964;SDS011;46834;51.100;6.886;2022-12-18T01:50:32;9.47;;;5.47;;
60964;SDS011;46834;51.100;6.886;2022-12-18T01:55:42;9.83;;;5.67;;
60964;SDS011;46834;51.100;6.886;2022-12-18T01:58:13;10.10;;;5.63;;
60964;SDS011;46834;51.100;6.886;2022-12-18T02:00:39;10.33;;;5.60;;
60964;SDS011;46834;51.100;6.886;2022-12-18T02:03:05;9.07;;;5.40;;
60964;SDS011;46834;51.100;6.886;2022-12-18T02:05:45;9.97;;;6.20;;
60964;SDS011;46834;51.100;6.886;2022-12-18T02:08:30;9.70;;;5.77;;
60964;SDS011;46834;51.100;6.886;2022-12-18T02:17:01;8.53;;;5.10;;
60964;SDS011;46834;51.100;6.886;2022-12-18T02:22:20;9.93;;;5.10;;
60964;SDS011;46834;51.100;6.886;2022-12-18T02:27:30;8.80;;;4.77;;
60964;SDS011;46834;51.100;6.886;2022-12-18T02:30:00;10.53;;;5.37;;
60964;SDS011;46834;51.100;6.886;2022-12-18T02:32:30;9.87;;;5.53;;
60964;SDS011;46834;51.100;6.886;2022-12-18T02:35:02;7.77;;;5.33;;
60964;SDS011;46834;51.100;6.886;2022-12-18T02:37:32;9.07;;;5.20;;
60964;SDS011;46834;51.100;6.886;2022-12-18T02:40:00;9.73;;;5.10;;
60964;SDS011;46834;51.100;6.886;2022-12-18T02:42:29;11.27;;;5.80;;
60964;SDS011;46834;51.100;6.886;2022-12-18T02:44:55;9.40;;;5.47;;
60964;SDS011;46834;51.100;6.886;2022-12-18T02:47:22;8.80;;;4.90;;
60964;SDS011;46834;51.100;6.886;2022-12-18T02:52:41;10.47;;;5.27;;
60964;SDS011;46834;51.100;6.886;2022-12-18T03:01:27;7.93;;;4.73;;
60964;SDS011;46834;51.100;6.886;2022-12-18T03:04:02;6.80;;;4.80;;
60964;SDS011;46834;51.100;6.886;2022-12-18T03:06:42;9.10;;;4.80;;
60964;SDS011;46834;51.100;6.886;2022-12-18T03:09:24;9.63;;;5.13;;
60964;SDS011;46834;51.100;6.886;2022-12-18T03:14:57;8.23;;;4.73;;
60964;SDS011;46834;51.100;6.886;2022-12-18T03:17:31;9.57;;;5.40;;
60964;SDS011;46834;51.100;6.886;2022-12-18T03:20:00;9.50;;;5.00;;
60964;SDS011;46834;51.100;6.886;2022-12-18T03:22:36;8.97;;;5.23;;
60964;SDS011;46834;51.100;6.886;2022-12-18T03:25:04;8.63;;;4.77;;
60964;SDS011;46834;51.100;6.886;2022-12-18T03:27:36;9.73;;;5.30;;
60964;SDS011;46834;51.100;6.886;2022-12-18T03:30:09;9.27;;;5.07;;
60964;SDS011;46834;51.100;6.886;2022-12-18T03:35:33;8.60;;;4.53;;
60964;SDS011;46834;51.100;6.886;2022-12-18T03:38:04;7.97;;;4.87;;
60964;SDS011;46834;51.100;6.886;2022-12-18T03:40:35;8.87;;;4.87;;
60964;SDS011;46834;51.100;6.886;2022-12-18T03:46:15;8.97;;;4.77;;
60964;SDS011;46834;51.100;6.886;2022-12-18T03:48:56;9.13;;;5.00;;
60964;SDS011;46834;51.100;6.886;2022-12-18T03:51:43;8.63;;;5.13;;
60964;SDS011;46834;51.100;6.886;2022-12-18T03:54:27;8.00;;;4.63;;
60964;SDS011;46834;51.100;6.886;2022-12-18T03:56:58;8.43;;;4.83;;
60964;SDS011;46834;51.100;6.886;2022-12-18T03:59:34;7.17;;;4.30;;
60964;SDS011;46834;51.100;6.886;2022-12-18T04:02:02;6.40;;;4.40;;
60964;SDS011;46834;51.100;6.886;2022-12-18T04:04:32;7.87;;;4.60;;
60964;SDS011;46834;51.100;6.886;2022-12-18T04:07:01;8.30;;;4.43;;
60964;SDS011;46834;51.100;6.886;2022-12-18T04:09:29;6.70;;;4.30;;
60964;SDS011;46834;51.100;6.886;2022-12-18T04:11:57;8.20;;;4.43;;
60964;SDS011;46834;51.100;6.886;2022-12-18T04:14:23;7.43;;;4.07;;
60964;SDS011;46834;51.100;6.886;2022-12-18T04:16:49;7.97;;;4.70;;
60964;SDS011;46834;51.100;6.886;2022-12-18T04:19:14;6.97;;;4.27;;
60964;SDS011;46834;51.100;6.886;2022-12-18T04:21:40;7.17;;;4.30;;
60964;SDS011;46834;51.100;6.886;2022-12-18T04:24:06;7.43;;;4.20;;
60964;SDS011;46834;51.100;6.886;2022-12-18T04:26:32;8.47;;;4.73;;
60964;SDS011;46834;51.100;6.886;2022-12-18T04:28:57;8.60;;;4.23;;
60964;SDS011;46834;51.100;6.886;2022-12-18T04:31:23;7.83;;;4.63;;
60964;SDS011;46834;51.100;6.886;2022-12-18T04:33:49;8.20;;;4.80;;
60964;SDS011;46834;51.100;6.886;2022-12-18T04:36:14;7.37;;;4.63;;
60964;SDS011;46834;51.100;6.886;2022-12-18T04:38:40;7.77;;;4.67;;
60964;SDS011;46834;51.100;6.886;2022-12-18T04:41:06;8.87;;;5.17;;
60964;SDS011;46834;51.100;6.886;2022-12-18T04:43:31;10.03;;;5.10;;
60964;SDS011;46834;51.100;6.886;2022-12-18T04:46:01;8.03;;;4.63;;
60964;SDS011;46834;51.100;6.886;2022-12-18T04:48:32;9.00;;;5.23;;
60964;SDS011;46834;51.100;6.886;2022-12-18T04:50:58;8.60;;;4.80;;
60964;SDS011;46834;51.100;6.886;2022-12-18T04:53:24;8.73;;;4.70;;
60964;SDS011;46834;51.100;6.886;2022-12-18T04:55:49;9.57;;;5.40;;
60964;SDS011;46834;51.100;6.886;2022-12-18T04:58:15;9.17;;;5.00;;
60964;SDS011;46834;51.100;6.886;2022-12-18T05:00:41;8.70;;;4.97;;
60964;SDS011;46834;51.100;6.886;2022-12-18T05:03:07;7.87;;;4.87;;
60964;SDS011;46834;51.100;6.886;2022-12-18T05:05:34;7.77;;;5.03;;
60964;SDS011;46834;51.100;6.886;2022-12-18T05:08:00;7.77;;;4.63;;
60964;SDS011;46834;51.100;6.886;2022-12-18T05:10:26;7.07;;;4.70;;
60964;SDS011;46834;51.100;6.886;2022-12-18T05:12:51;7.03;;;4.60;;
60964;SDS011;46834;51.100;6.886;2022-12-18T05:15:23;10.70;;;5.87;;
60964;SDS011;46834;51.100;6.886;2022-12-18T05:17:55;8.73;;;5.07;;
60964;SDS011;46834;51.100;6.886;2022-12-18T05:20:21;9.63;;;4.60;;
60964;SDS011;46834;51.100;6.886;2022-12-18T05:22:48;6.97;;;4.63;;
60964;SDS011;46834;51.100;6.886;2022-12-18T05:25:14;12.23;;;5.63;;
60964;SDS011;46834;51.100;6.886;2022-12-18T05:27:40;10.93;;;5.33;;
60964;SDS011;46834;51.100;6.886;2022-12-18T05:30:06;9.37;;;5.23;;
60964;SDS011;46834;51.100;6.886;2022-12-18T05:32:33;8.33;;;5.03;;
60964;SDS011;46834;51.100;6.886;2022-12-18T05:34:59;8.87;;;4.40;;
60964;SDS011;46834;51.100;6.886;2022-12-18T05:37:24;7.90;;;4.70;;
60964;SDS011;46834;51.100;6.886;2022-12-18T05:39:50;10.30;;;4.87;;
60964;SDS011;46834;51.100;6.886;2022-12-18T05:42:16;8.40;;;4.73;;
60964;SDS011;46834;51.100;6.886;2022-12-18T05:44:42;7.30;;;4.73;;
60964;SDS011;46834;51.100;6.886;2022-12-18T05:47:08;9.30;;;5.53;;
60964;SDS011;46834;51.100;6.886;2022-12-18T05:49:34;7.13;;;4.63;;
60964;SDS011;46834;51.100;6.886;2022-12-18T05:52:00;8.03;;;4.80;;
60964;SDS011;46834;51.100;6.886;2022-12-18T05:54:27;7.27;;;4.20;;
60964;SDS011;46834;51.100;6.886;2022-12-18T05:56:53;8.37;;;4.83;;
60964;SDS011;46834;51.100;6.886;2022-12-18T05:59:19;8.27;;;4.93;;
60964;SDS011;46834;51.100;6.886;2022-12-18T06:01:44;6.43;;;4.27;;
60964;SDS011;46834;51.100;6.886;2022-12-18T06:04:10;7.20;;;4.40;;
60964;SDS011;46834;51.100;6.886;2022-12-18T06:06:37;5.90;;;3.90;;
60964;SDS011;46834;51.100;6.886;2022-12-18T06:09:03;8.70;;;4.70;;
60964;SDS011;46834;51.100;6.886;2022-12-18T06:11:33;7.47;;;4.47;;
60964;SDS011;46834;51.100;6.886;2022-12-18T06:14:01;9.17;;;4.63;;
60964;SDS011;46834;51.100;6.886;2022-12-18T06:16:28;10.63;;;5.00;;
60964;SDS011;46834;51.100;6.886;2022-12-18T06:18:59;8.10;;;4.57;;
60964;SDS011;46834;51.100;6.886;2022-12-18T06:21:28;9.03;;;4.73;;
60964;SDS011;46834;51.100;6.886;2022-12-18T06:23:54;7.90;;;4.73;;
60964;SDS011;46834;51.100;6.886;2022-12-18T06:26:20;8.20;;;4.90;;
60964;SDS011;46834;51.100;6.886;2022-12-18T06:28:46;8.17;;;4.87;;
60964;SDS011;46834;51.100;6.886;2022-12-18T06:31:12;8.83;;;5.13;;
60964;SDS011;46834;51.100;6.886;2022-12-18T06:33:38;9.90;;;4.80;;
60964;SDS011;46834;51.100;6.886;2022-12-18T06:36:08;8.90;;;4.97;;
60964;SDS011;46834;51.100;6.886;2022-12-18T06:38:39;8.67;;;5.00;;
60964;SDS011;46834;51.100;6.886;2022-12-18T06:41:07;9.07;;;4.80;;
60964;SDS011;46834;51.100;6.886;2022-12-18T06:43:41;7.37;;;4.77;;
60964;SDS011;46834;51.100;6.886;2022-12-18T06:46:07;8.87;;;4.87;;
60964;SDS011;46834;51.100;6.886;2022-12-18T06:48:33;8.77;;;5.07;;
60964;SDS011;46834;51.100;6.886;2022-12-18T06:51:00;10.37;;;5.17;;
60964;SDS011;46834;51.100;6.886;2022-12-18T06:53:26;10.00;;;5.47;;
60964;SDS011;46834;51.100;6.886;2022-12-18T06:55:58;9.90;;;5.30;;
60964;SDS011;46834;51.100;6.886;2022-12-18T06:58:26;11.90;;;5.40;;
60964;SDS011;46834;51.100;6.886;2022-12-18T07:00:52;8.40;;;5.33;;
60964;SDS011;46834;51.100;6.886;2022-12-18T07:03:18;11.77;;;5.63;;
60964;SDS011;46834;51.100;6.886;2022-12-18T07:05:44;9.50;;;5.27;;
60964;SDS011;46834;51.100;6.886;2022-12-18T07:08:10;9.17;;;5.30;;
60964;SDS011;46834;51.100;6.886;2022-12-18T07:10:42;11.93;;;5.53;;
60964;SDS011;46834;51.100;6.886;2022-12-18T07:13:08;11.27;;;6.47;;
60964;SDS011;46834;51.100;6.886;2022-12-18T07:15:35;9.10;;;5.03;;
60964;SDS011;46834;51.100;6.886;2022-12-18T07:18:00;9.97;;;5.37;;
60964;SDS011;46834;51.100;6.886;2022-12-18T07:20:26;10.83;;;6.07;;
60964;SDS011;46834;51.100;6.886;2022-12-18T07:22:51;9.93;;;5.63;;
60964;SDS011;46834;51.100;6.886;2022-12-18T07:25:17;10.17;;;6.00;;
60964;SDS011;46834;51.100;6.886;2022-12-18T07:27:43;11.07;;;5.77;;
60964;SDS011;46834;51.100;6.886;2022-12-18T07:30:09;11.87;;;5.73;;
60964;SDS011;46834;51.100;6.886;2022-12-18T07:32:35;11.40;;;6.00;;
60964;SDS011;46834;51.100;6.886;2022-12-18T07:35:01;10.37;;;6.17;;
60964;SDS011;46834;51.100;6.886;2022-12-18T07:37:27;10.10;;;5.93;;
60964;SDS011;46834;51.100;6.886;2022-12-18T07:39:53;10.73;;;5.77;;
60964;SDS011;46834;51.100;6.886;2022-12-18T07:42:18;8.70;;;5.40;;
60964;SDS011;46834;51.100;6.886;2022-12-18T07:44:56;10.23;;;5.90;;
60964;SDS011;46834;51.100;6.886;2022-12-18T07:47:26;11.23;;;6.13;;
60964;SDS011;46834;51.100;6.886;2022-12-18T07:49:58;11.33;;;6.27;;
60964;SDS011;46834;51.100;6.886;2022-12-18T07:52:24;12.67;;;6.50;;
60964;SDS011;46834;51.100;6.886;2022-12-18T07:54:50;10.43;;;6.50;;
60964;SDS011;46834;51.100;6.886;2022-12-18T07:57:16;12.47;;;5.83;;
60964;SDS011;46834;51.100;6.886;2022-12-18T07:59:42;10.70;;;6.20;;
60964;SDS011;46834;51.100;6.886;2022-12-18T08:02:08;11.53;;;6.13;;
60964;SDS011;46834;51.100;6.886;2022-12-18T08:04:34;10.03;;;6.00;;
60964;SDS011;46834;51.100;6.886;2022-12-18T08:07:00;12.50;;;6.30;;
60964;SDS011;46834;51.100;6.886;2022-12-18T08:09:25;11.07;;;6.20;;
60964;SDS011;46834;51.100;6.886;2022-12-18T08:11:51;10.10;;;6.20;;
60964;SDS011;46834;51.100;6.886;2022-12-18T08:14:17;11.90;;;5.87;;
60964;SDS011;46834;51.100;6.886;2022-12-18T08:16:42;9.33;;;5.90;;
60964;SDS011;46834;51.100;6.886;2022-12-18T08:19:09;12.33;;;6.13;;
60964;SDS011;46834;51.100;6.886;2022-12-18T08:21:35;10.23;;;6.13;;
60964;SDS011;46834;51.100;6.886;2022-12-18T08:24:01;11.03;;;6.53;;
60964;SDS011;46834;51.100;6.886;2022-12-18T08:26:28;10.17;;;5.87;;
60964;SDS011;46834;51.100;6.886;2022-12-18T08:28:56;12.37;;;6.73;;
60964;SDS011;46834;51.100;6.886;2022-12-18T08:31:25;16.83;;;7.17;;
60964;SDS011;46834;51.100;6.886;2022-12-18T08:33:52;10.97;;;5.97;;
60964;SDS011;46834;51.100;6.886;2022-12-18T08:36:19;12.97;;;6.67;;
60964;SDS011;46834;51.100;6.886;2022-12-18T08:38:46;12.60;;;6.70;;
60964;SDS011;46834;51.100;6.886;2022-12-18T08:41:13;12.03;;;6.83;;
60964;SDS011;46834;51.100;6.886;2022-12-18T08:43:41;12.60;;;6.87;;
60964;SDS011;46834;51.100;6.886;2022-12-18T08:46:26;11.60;;;6.20;;
60964;SDS011;46834;51.100;6.886;2022-12-18T08:48:58;12.73;;;6.53;;
60964;SDS011;46834;51.100;6.886;2022-12-18T08:51:23;12.30;;;6.53;;
60964;SDS011;46834;51.100;6.886;2022-12-18T08:53:49;11.33;;;6.07;;
60964;SDS011;46834;51.100;6.886;2022-12-18T08:56:15;13.30;;;6.30;;
60964;SDS011;46834;51.100;6.886;2022-12-18T08:58:41;12.70;;;6.37;;
60964;SDS011;46834;51.100;6.886;2022-12-18T09:01:09;11.33;;;6.47;;
60964;SDS011;46834;51.100;6.886;2022-12-18T09:03:37;10.77;;;6.30;;
60964;SDS011;46834;51.100;6.886;2022-12-18T09:06:03;10.33;;;6.50;;
60964;SDS011;46834;51.100;6.886;2022-12-18T09:08:30;10.70;;;6.50;;
60964;SDS011;46834;51.100;6.886;2022-12-18T09:10:55;13.27;;;7.00;;
60964;SDS011;46834;51.100;6.886;2022-12-18T09:13:21;12.37;;;6.57;;
60964;SDS011;46834;51.100;6.886;2022-12-18T09:15:49;11.77;;;6.67;;
60964;SDS011;46834;51.100;6.886;2022-12-18T09:18:20;11.23;;;6.23;;
60964;SDS011;46834;51.100;6.886;2022-12-18T09:20:48;10.73;;;6.40;;
60964;SDS011;46834;51.100;6.886;2022-12-18T09:23:16;12.17;;;6.37;;
60964;SDS011;46834;51.100;6.886;2022-12-18T09:25:42;12.50;;;6.77;;
60964;SDS011;46834;51.100;6.886;2022-12-18T09:28:14;11.43;;;6.57;;
60964;SDS011;46834;51.100;6.886;2022-12-18T09:30:45;11.07;;;6.60;;
60964;SDS011;46834;51.100;6.886;2022-12-18T09:33:13;13.67;;;6.87;;
60964;SDS011;46834;51.100;6.886;2022-12-18T09:35:40;12.67;;;6.63;;
60964;SDS011;46834;51.100;6.886;2022-12-18T09:38:09;11.87;;;6.53;;
60964;SDS011;46834;51.100;6.886;2022-12-18T09:40:41;12.20;;;6.60;;
60964;SDS011;46834;51.100;6.886;2022-12-18T09:43:14;11.10;;;6.07;;
60964;SDS011;46834;51.100;6.886;2022-12-18T09:46:10;14.77;;;6.70;;
60964;SDS011;46834;51.100;6.886;2022-12-18T09:48:44;12.33;;;7.27;;
60964;SDS011;46834;51.100;6.886;2022-12-18T09:53:55;11.37;;;6.87;;
60964;SDS011;46834;51.100;6.886;2022-12-18T09:56:28;9.67;;;6.73;;
60964;SDS011;46834;51.100;6.886;2022-12-18T09:59:00;14.10;;;6.90;;
60964;SDS011;46834;51.100;6.886;2022-12-18T10:01:29;16.30;;;7.43;;
60964;SDS011;46834;51.100;6.886;2022-12-18T10:03:56;15.03;;;7.20;;
60964;SDS011;46834;51.100;6.886;2022-12-18T10:09:05;15.27;;;7.47;;
60964;SDS011;46834;51.100;6.886;2022-12-18T10:17:55;13.00;;;7.27;;
60964;SDS011;46834;51.100;6.886;2022-12-18T10:20:32;12.10;;;6.80;;
60964;SDS011;46834;51.100;6.886;2022-12-18T10:28:25;11.80;;;6.67;;
60964;SDS011;46834;51.100;6.886;2022-12-18T10:30:55;11.67;;;6.93;;
60964;SDS011;46834;51.100;6.886;2022-12-18T10:33:21;12.87;;;7.00;;
60964;SDS011;46834;51.100;6.886;2022-12-18T10:35:52;13.80;;;7.17;;
60964;SDS011;46834;51.100;6.886;2022-12-18T10:43:15;13.30;;;7.53;;
60964;SDS011;46834;51.100;6.886;2022-12-18T10:48:34;15.67;;;7.00;;
60964;SDS011;46834;51.100;6.886;2022-12-18T10:51:04;14.90;;;6.70;;
60964;SDS011;46834;51.100;6.886;2022-12-18T10:53:33;11.87;;;7.13;;
60964;SDS011;46834;51.100;6.886;2022-12-18T10:56:02;14.03;;;7.40;;
60964;SDS011;46834;51.100;6.886;2022-12-18T10:58:34;13.70;;;7.53;;
60964;SDS011;46834;51.100;6.886;2022-12-18T11:03:40;13.03;;;7.40;;
60964;SDS011;46834;51.100;6.886;2022-12-18T11:08:34;12.07;;;7.37;;
60964;SDS011;46834;51.100;6.886;2022-12-18T11:11:01;11.77;;;7.00;;
60964;SDS011;46834;51.100;6.886;2022-12-18T11:13:29;16.43;;;8.10;;
60964;SDS011;46834;51.100;6.886;2022-12-18T11:15:56;13.13;;;7.30;;
60964;SDS011;46834;51.100;6.886;2022-12-18T11:20:57;14.50;;;8.33;;
60964;SDS011;46834;51.100;6.886;2022-12-18T11:23:32;15.27;;;8.20;;
60964;SDS011;46834;51.100;6.886;2022-12-18T11:26:00;14.43;;;7.73;;
60964;SDS011;46834;51.100;6.886;2022-12-18T11:31:15;12.17;;;7.27;;
60964;SDS011;46834;51.100;6.886;2022-12-18T11:34:10;15.27;;;8.30;;
60964;SDS011;46834;51.100;6.886;2022-12-18T11:36:54;15.23;;;7.70;;
60964;SDS011;46834;51.100;6.886;2022-12-18T11:42:00;18.97;;;8.13;;
60964;SDS011;46834;51.100;6.886;2022-12-18T11:44:59;16.80;;;8.00;;
60964;SDS011;46834;51.100;6.886;2022-12-18T11:50:15;16.33;;;7.77;;
60964;SDS011;46834;51.100;6.886;2022-12-18T11:52:45;17.60;;;7.83;;
60964;SDS011;46834;51.100;6.886;2022-12-18T11:55:15;15.40;;;9.37;;
60964;SDS011;46834;51.100;6.886;2022-12-18T11:57:54;14.93;;;7.97;;
60964;SDS011;46834;51.100;6.886;2022-12-18T12:00:32;15.37;;;8.23;;
60964;SDS011;46834;51.100;6.886;2022-12-18T12:03:24;15.97;;;9.00;;
60964;SDS011;46834;51.100;6.886;2022-12-18T12:15:19;15.33;;;8.67;;
60964;SDS011;46834;51.100;6.886;2022-12-18T12:18:17;16.40;;;8.30;;
60964;SDS011;46834;51.100;6.886;2022-12-18T12:20:57;15.60;;;9.17;;
60964;SDS011;46834;51.100;6.886;2022-12-18T12:23:54;12.33;;;8.10;;
60964;SDS011;46834;51.100;6.886;2022-12-18T12:32:46;15.80;;;8.47;;
60964;SDS011;46834;51.100;6.886;2022-12-18T12:35:26;15.00;;;8.10;;
60964;SDS011;46834;51.100;6.886;2022-12-18T12:40:54;15.53;;;8.40;;
60964;SDS011;46834;51.100;6.886;2022-12-18T12:43:30;14.53;;;8.47;;
60964;SDS011;46834;51.100;6.886;2022-12-18T12:46:12;16.10;;;8.90;;
60964;SDS011;46834;51.100;6.886;2022-12-18T12:51:37;15.90;;;9.13;;
60964;SDS011;46834;51.100;6.886;2022-12-18T12:54:11;19.67;;;9.90;;
60964;SDS011;46834;51.100;6.886;2022-12-18T13:00:09;18.13;;;10.10;;
60964;SDS011;46834;51.100;6.886;2022-12-18T13:02:58;18.83;;;9.87;;
60964;SDS011;46834;51.100;6.886;2022-12-18T13:05:45;19.33;;;10.00;;
60964;SDS011;46834;51.100;6.886;2022-12-18T13:08:23;24.17;;;9.93;;
60964;SDS011;46834;51.100;6.886;2022-12-18T13:10:52;21.37;;;9.97;;
60964;SDS011;46834;51.100;6.886;2022-12-18T13:13:49;21.53;;;10.97;;
60964;SDS011;46834;51.100;6.886;2022-12-18T13:16:24;23.37;;;11.47;;
60964;SDS011;46834;51.100;6.886;2022-12-18T13:18:55;22.10;;;10.57;;
60964;SDS011;46834;51.100;6.886;2022-12-18T13:21:30;19.57;;;10.90;;
60964;SDS011;46834;51.100;6.886;2022-12-18T13:24:15;20.27;;;11.17;;
60964;SDS011;46834;51.100;6.886;2022-12-18T13:26:55;23.50;;;10.80;;
60964;SDS011;46834;51.100;6.886;2022-12-18T13:29:41;20.00;;;10.97;;
60964;SDS011;46834;51.100;6.886;2022-12-18T13:32:44;19.93;;;11.27;;
60964;SDS011;46834;51.100;6.886;2022-12-18T13:37:52;18.43;;;10.63;;
60964;SDS011;46834;51.100;6.886;2022-12-18T13:43:14;21.77;;;12.60;;
60964;SDS011;46834;51.100;6.886;2022-12-18T13:46:05;21.37;;;11.93;;
60964;SDS011;46834;51.100;6.886;2022-12-18T13:48:49;22.03;;;11.43;;
60964;SDS011;46834;51.100;6.886;2022-12-18T13:51:17;21.30;;;11.50;;
60964;SDS011;46834;51.100;6.886;2022-12-18T13:53:53;20.47;;;11.13;;
60964;SDS011;46834;51.100;6.886;2022-12-18T13:56:25;20.90;;;11.83;;
60964;SDS011;46834;51.100;6.886;2022-12-18T13:59:11;21.03;;;11.57;;
60964;SDS011;46834;51.100;6.886;2022-12-18T14:01:55;21.67;;;10.80;;
60964;SDS011;46834;51.100;6.886;2022-12-18T14:04:31;21.93;;;11.47;;
60964;SDS011;46834;51.100;6.886;2022-12-18T14:09:40;23.17;;;12.33;;
60964;SDS011;46834;51.100;6.886;2022-12-18T14:12:14;22.73;;;11.73;;
60964;SDS011;46834;51.100;6.886;2022-12-18T14:17:54;21.37;;;11.37;;
60964;SDS011;46834;51.100;6.886;2022-12-18T14:20:25;23.33;;;12.17;;
60964;SDS011;46834;51.100;6.886;2022-12-18T14:22:52;21.87;;;12.63;;
60964;SDS011;46834;51.100;6.886;2022-12-18T14:25:20;22.30;;;12.30;;
60964;SDS011;46834;51.100;6.886;2022-12-18T14:27:53;24.93;;;13.13;;
60964;SDS011;46834;51.100;6.886;2022-12-18T14:30:37;24.50;;;13.27;;
60964;SDS011;46834;51.100;6.886;2022-12-18T14:33:09;22.23;;;12.37;;
60964;SDS011;46834;51.100;6.886;2022-12-18T14:35:58;22.03;;;12.70;;
60964;SDS011;46834;51.100;6.886;2022-12-18T14:38:30;23.50;;;12.70;;
60964;SDS011;46834;51.100;6.886;2022-12-18T14:41:12;21.90;;;12.03;;
60964;SDS011;46834;51.100;6.886;2022-12-18T14:43:41;23.53;;;13.30;;
60964;SDS011;46834;51.100;6.886;2022-12-18T14:46:25;20.77;;;11.63;;
60964;SDS011;46834;51.100;6.886;2022-12-18T14:49:00;21.80;;;12.33;;
60964;SDS011;46834;51.100;6.886;2022-12-18T14:51:54;26.23;;;14.47;;
60964;SDS011;46834;51.100;6.886;2022-12-18T14:54:23;24.80;;;13.50;;
60964;SDS011;46834;51.100;6.886;2022-12-18T14:56:51;23.43;;;12.67;;
60964;SDS011;46834;51.100;6.886;2022-12-18T14:59:26;19.97;;;11.67;;
60964;SDS011;46834;51.100;6.886;2022-12-18T15:02:04;22.63;;;11.57;;
60964;SDS011;46834;51.100;6.886;2022-12-18T15:04:45;21.50;;;12.10;;
60964;SDS011;46834;51.100;6.886;2022-12-18T15:07:18;26.93;;;13.57;;
60964;SDS011;46834;51.100;6.886;2022-12-18T15:10:09;29.40;;;14.43;;
60964;SDS011;46834;51.100;6.886;2022-12-18T15:12:43;25.90;;;13.10;;
60964;SDS011;46834;51.100;6.886;2022-12-18T15:18:00;23.23;;;13.47;;
60964;SDS011;46834;51.100;6.886;2022-12-18T15:20:32;25.43;;;13.03;;
60964;SDS011;46834;51.100;6.886;2022-12-18T15:25:48;23.37;;;12.53;;
60964;SDS011;46834;51.100;6.886;2022-12-18T15:28:26;22.07;;;12.87;;
60964;SDS011;46834;51.100;6.886;2022-12-18T15:34:00;24.90;;;13.23;;
60964;SDS011;46834;51.100;6.886;2022-12-18T15:36:37;23.17;;;12.23;;
60964;SDS011;46834;51.100;6.886;2022-12-18T15:39:03;24.63;;;12.97;;
60964;SDS011;46834;51.100;6.886;2022-12-18T15:41:31;24.57;;;13.13;;
60964;SDS011;46834;51.100;6.886;2022-12-18T15:43:59;27.03;;;13.80;;
60964;SDS011;46834;51.100;6.886;2022-12-18T15:46:25;30.07;;;14.53;;
60964;SDS011;46834;51.100;6.886;2022-12-18T15:48:52;24.43;;;13.77;;
60964;SDS011;46834;51.100;6.886;2022-12-18T15:51:24;26.07;;;13.37;;
60964;SDS011;46834;51.100;6.886;2022-12-18T15:53:55;23.80;;;13.50;;
60964;SDS011;46834;51.100;6.886;2022-12-18T15:56:24;27.23;;;13.53;;
60964;SDS011;46834;51.100;6.886;2022-12-18T15:59:15;27.07;;;14.37;;
60964;SDS011;46834;51.100;6.886;2022-12-18T16:01:44;29.70;;;14.97;;
60964;SDS011;46834;51.100;6.886;2022-12-18T16:04:13;25.30;;;13.40;;
60964;SDS011;46834;51.100;6.886;2022-12-18T16:06:41;27.40;;;14.40;;
60964;SDS011;46834;51.100;6.886;2022-12-18T16:09:07;27.20;;;14.50;;
60964;SDS011;46834;51.100;6.886;2022-12-18T16:11:33;25.17;;;13.33;;
60964;SDS011;46834;51.100;6.886;2022-12-18T16:14:21;28.73;;;15.03;;
60964;SDS011;46834;51.100;6.886;2022-12-18T16:16:54;28.60;;;13.90;;
60964;SDS011;46834;51.100;6.886;2022-12-18T16:19:25;26.50;;;14.33;;
60964;SDS011;46834;51.100;6.886;2022-12-18T16:21:54;26.03;;;14.20;;
60964;SDS011;46834;51.100;6.886;2022-12-18T16:24:22;28.60;;;13.80;;
60964;SDS011;46834;51.100;6.886;2022-12-18T16:26:52;30.57;;;16.13;;
60964;SDS011;46834;51.100;6.886;2022-12-18T16:29:18;30.17;;;16.43;;
60964;SDS011;46834;51.100;6.886;2022-12-18T16:31:52;25.50;;;14.20;;
60964;SDS011;46834;51.100;6.886;2022-12-18T16:36:48;25.67;;;15.07;;
60964;SDS011;46834;51.100;6.886;2022-12-18T16:39:14;25.30;;;13.53;;
60964;SDS011;46834;51.100;6.886;2022-12-18T16:41:41;28.73;;;15.17;;
60964;SDS011;46834;51.100;6.886;2022-12-18T16:44:07;27.63;;;14.73;;
60964;SDS011;46834;51.100;6.886;2022-12-18T16:46:33;29.03;;;16.67;;
60964;SDS011;46834;51.100;6.886;2022-12-18T16:48:59;28.70;;;15.53;;
60964;SDS011;46834;51.100;6.886;2022-12-18T16:51:28;30.67;;;16.77;;
60964;SDS011;46834;51.100;6.886;2022-12-18T16:53:54;32.30;;;16.23;;